Weather observations for the past three days for
Sikeston Memorial Municipal Airport
Metric (Imperial)
Date Time (cdt) Wind (kph) Vis. (km) Weather Sky Cond. Temperature (ºC) Relative Humidity Wind Chill (°C) Heat Index (°C) Pressure Precipitation (cm)
Air Dwpt 6 hour altimeter (cm) sea level (mb) 1 hr 3 hr 6 hr
Max. Min.
06 22:55 N 6 16.09 NULL NULL 12.1 9.3 83% 76.2 0.0
06 22:35 NW 6 16.09 NULL NULL 12.6 7.5 71% 76.23 0.0
06 22:15 N 6 16.09 NULL NULL 12.3 9.4 83% 76.17 0.0
06 21:55 N 7 16.09 NULL NULL 12.5 8.7 78% 76.2 0.0
06 21:35 N 7 16.09 NULL NULL 12.6 8.5 76% 76.2 0.0
06 21:15 N 9 14.48 Light Rain NULL 13.1 8.1 72% 76.15 0.0
06 20:55 Calm 16.09 NULL NULL 13.6 9.1 74% 76.23 0.0
06 20:35 N 6 16.09 NULL NULL 13.7 8.3 70% 76.2 0.0
06 20:15 N 6 16.09 NULL NULL 14.2 8.5 69% 76.17 0.0
06 19:55 Calm 16.09 NULL NULL 14.5 9.2 71% 76.17 0.0
06 19:35 Calm 16.09 NULL NULL 14.9 7.8 63% 76.17 0.0
06 19:15 N 9 16.09 NULL NULL 15.1 7.2 59% 76.12 0.0
06 18:55 N 13 16.09 NULL NULL 15.3 7 16.4 14.7 58% 76.12 0.0
06 18:35 N 13 16.09 NULL NULL 15.5 6.3 55% 76.07 0.0
06 18:15 N 15 16.09 NULL NULL 15.8 6.6 55% 76.05 0.0
06 17:55 N 13 16.09 NULL NULL 16.1 7.9 59% 76.05 0.0
06 17:35 N 7 16.09 NULL NULL 16.1 7.9 59% 76.05 0.0
06 17:15 N 13 16.09 NULL NULL 16.1 7.1 55% 76.07 0.0
06 16:55 Vrbl 9 16.09 NULL NULL 16.4 7.3 55% 76.1 0.0
06 16:35 N 9 16.09 NULL NULL 15.8 6.5 54% 76.1 0.0
06 16:15 N 13 16.09 NULL NULL 15.6 6.2 54% 76.15 0.0
06 15:55 N 9 16.09 NULL NULL 15 6.5 57% 76.17 0.0
06 15:35 NE 9 16.09 NULL NULL 15.6 6.8 56% 76.2 0.0
06 15:15 N 11 16.09 NULL NULL 14.9 6.9 59% 76.17 0.0
06 14:55 NE 13 16.09 NULL NULL 14.9 7 59% 76.12 0.0
06 14:35 N 11 16.09 NULL NULL 15.1 7.3 60% 76.17 0.0
06 14:15 NE 11 16.09 NULL NULL 14.8 7.4 61% 76.2 0.0
06 13:55 N 13 16.09 NULL NULL 15 7.1 59% 76.15 0.0
06 13:35 N 19 16.09 NULL NULL 15.4 7.3 59% 76.15 0.0
06 13:15 N 19 16.09 NULL NULL 15.3 6.4 56% 76.15 0.0
06 12:55 NE 17 16.09 NULL NULL 15.3 6.9 15.3 8.9 58% 76.15 0.0
06 12:35 NE 9 16.09 NULL NULL 15 6.6 57% 76.17 0.0
06 12:15 N 17 16.09 NULL NULL 14.5 6.6 59% 76.23 0.0
06 11:55 N 19 16.09 NULL NULL 13.7 6.9 64% 76.2 0.0
06 11:35 NE 15 16.09 NULL NULL 13.4 6.7 64% 76.17 0.0
06 11:15 N 20 16.09 NULL NULL 13.2 7.2 67% 76.17 0.0
06 10:55 N 13 16.09 NULL NULL 12.9 8 72% 76.17 0.0
06 10:35 N 15 16.09 NULL NULL 12.4 8 75% 76.2 0.0
06 10:15 N 15 16.09 NULL NULL 12.6 8.5 76% 76.2 0.0
06 09:55 N 13 16.09 NULL NULL 11.7 8.6 81% 76.17 0.0
06 09:35 N 19 16.09 NULL NULL 11.6 8.3 80% 76.2 0.0
06 09:15 N 17 16.09 NULL NULL 11.8 8.3 79% 76.15 0.0
06 08:55 N 15 16.09 NULL NULL 11.9 8 77% 76.1 0.0
06 08:35 N 19 16.09 NULL NULL 11.3 8.4 83% 76.1 0.0
06 08:15 N 15 16.09 NULL NULL 10.9 8.8 87% 76.07 0.0
06 07:55 N 15 16.09 NULL NULL 9.9 8.9 94% 8 76.02 0.0
06 07:35 N 13 14.48 NULL NULL 9.4 8.7 95% 8 76.02 0.0
06 07:15 N 13 14.48 NULL NULL 9.1 8.8 98% 7 76.02 0.0
06 06:55 N 13 14.48 NULL NULL 8.8 8.5 9.6 8.1 98% 7 76 0.0 0.18
06 06:35 N 7 16.09 NULL NULL 8.7 8.6 99% 8 76 0.0
06 06:15 N 11 14.48 NULL NULL 8.5 8.3 99% 7 75.95 0.0
06 05:55 N 9 16.09 NULL NULL 8.4 8.3 99% 7 75.95 0.0
06 05:35 N 13 16.09 NULL NULL 8.3 8.2 99% 6 75.95 0.0
06 05:15 N 9 16.09 NULL NULL 8.2 8.1 99% 7 75.95 0.0
06 04:55 N 15 16.09 NULL NULL 8.3 8 98% 6 75.95 0.0
06 04:35 N 15 16.09 NULL NULL 8.3 7.7 96% 6 75.95 0.0
06 04:15 NE 15 14.48 Light Rain NULL 8.2 7.7 97% 6 75.9 0.0
06 03:55 N 19 12.87 Light Rain NULL 8.2 8 99% 6 75.87 0.0 0.13 0.18
06 03:35 NE 19 G 31 9.66 Light Rain Fog/Mist NULL 8.3 8 98% 6 75.87 0.0 0.13
06 03:15 N 19 12.87 Light Rain NULL 8.5 8.5 100% 6 75.9 0.0 0.05
06 02:55 N 13 16.09 NULL NULL 8.7 8.7 100% 7 75.79 0.0
06 02:35 N 17 16.09 NULL NULL 8.7 8.7 100% 6 75.79 0.0
06 02:15 N 22 16.09 NULL NULL 8.8 8.7 99% 6 75.82 0.0
06 01:55 N 22 16.09 NULL NULL 9.3 9.3 100% 7 75.84 0.0 0.05
06 00:55 NW 20 9.66 Light Rain Fog/Mist NULL 9.8 9.8 12.4 9.8 100% 7 75.9 0.0 0.03 0.74
06 00:35 NW 19 16.09 NULL NULL 9.9 9.9 100% 8 75.82 0.0
06 00:15 N 20 12.87 Light Rain NULL 10 10 100% 8 75.69 0.0
05 23:55 N 15 12.87 Light Rain NULL 10.1 10.1 100% 75.72 0.0
05 23:35 N 26 G 33 14.48 NULL NULL 10 10 100% 7 75.69 0.0
05 23:15 N 26 G 35 16.09 NULL NULL 10 10 100% 7 75.72 0.0
05 22:55 N 24 11.27 Light Rain NULL 10.3 10.3 100% 75.72 0.0 0.03
05 22:35 N 17 8.05 Light Rain Fog/Mist NULL 10.4 10.4 100% 75.72 0.0 0.03
05 22:15 N 19 11.27 Light Rain NULL 10.5 10.5 100% 75.72 0.0
05 21:55 N 19 G 31 9.66 Light Rain Fog/Mist NULL 10.5 10.5 100% 75.69 0.0 0.15 0.69
05 21:35 N 20 8.05 Light Rain Fog/Mist NULL 10.7 10.7 100% 75.67 0.0 0.08
05 21:15 N 19 8.05 Light Rain Fog/Mist NULL 11 11 100% 75.64 0.0 0.03
05 20:55 N 17 9.66 Light Rain Fog/Mist NULL 11.7 11.7 100% 75.62 0.0 0.46
05 20:35 N 19 6.44 Light Rain Fog/Mist NULL 11.7 11.7 100% 75.59 0.0 0.43
05 20:15 N 15 4.83 Light Rain Fog/Mist NULL 12.1 12.1 100% 75.57 0.0 0.1
05 19:55 NE 11 6.44 Light Rain Fog/Mist NULL 12.2 12.2 100% 75.51 0.0 0.08
05 19:35 N 15 9.66 Fog/Mist NULL 12.2 12.2 100% 75.51 0.0 0.08
05 19:15 N 17 9.66 Light Rain Fog/Mist NULL 12.3 12.3 100% 75.51 0.0 0.05
05 18:55 N 15 2.41 Light Rain Fog/Mist NULL 12.7 12.7 17.8 12.6 100% 75.54 0.0 0.1 0.84
05 18:35 N 15 8.05 Fog/Mist NULL 12.7 12.7 100% 75.54 0.0 0.03
05 18:15 NE 19 6.44 Light Rain Fog/Mist NULL 12.8 12.8 100% 75.46 0.0 0.03
05 17:55 N 19 4.02 Light Rain Fog/Mist NULL 12.9 12.9 100% 75.54 0.0 0.33
05 17:35 N 19 3.22 Light Rain Fog/Mist NULL 13.3 13.3 100% 75.54 0.0 0.3
05 17:15 N 20 2.82 Light Rain Fog/Mist NULL 13.8 13.8 100% 75.57 0.0 0.25
05 16:55 NW 17 4.02 Light Rain Fog/Mist NULL 17.2 17.2 100% 75.51 0.0 0.18
05 16:35 SW 11 4.02 Light Rain Fog/Mist NULL 17.4 17.4 100% 75.51 0.0 0.13
05 16:15 SW 11 4.83 Light Rain Fog/Mist NULL 17.4 17.4 100% 75.51 0.0 0.08
05 15:55 SW 17 6.44 Light Rain Fog/Mist NULL 17.5 17.5 100% 75.54 0.0 0.08 0.23
05 15:35 S 15 6.44 Light Rain Fog/Mist NULL 17.5 17.5 100% 75.51 0.0 0.05
05 15:15 SW 13 6.44 Light Rain Fog/Mist NULL 17.5 17.5 100% 75.54 0.0 0.03
05 14:55 SW 13 4.02 Light Rain Fog/Mist NULL 17.5 17.5 100% 75.54 0.0 0.13
05 14:35 S 13 4.83 Light Rain Fog/Mist NULL 17.5 17.5 100% 75.54 0.0 0.1
05 14:15 S 15 6.44 Light Rain Fog/Mist NULL 17.7 17.7 100% 75.57 0.0 0.05
05 13:55 S 13 6.44 Light Rain Fog/Mist NULL 17.4 17.4 100% 75.57 0.0 0.03
05 13:35 S 9 8.05 Fog/Mist NULL 17.5 17.5 100% 75.57 0.0 0.03
05 13:15 S 13 6.44 Fog/Mist NULL 17.5 17.5 100% 75.54 0.0
05 12:55 S 13 6.44 Light Rain Fog/Mist NULL 17.4 17.4 18.7 15.6 100% 75.57 0.0 0.08 0.66
05 12:35 S 15 6.44 Light Rain Fog/Mist NULL 17.2 17.2 100% 75.59 0.0 0.05
05 12:15 S 9 8.05 Light Rain Fog/Mist NULL 17.2 17.2 100% 75.62 0.0 0.03
05 11:55 S 7 9.66 Light Rain Fog/Mist NULL 17 17 100% 75.64 0.0 0.05
05 11:35 S 9 14.48 NULL NULL 16.9 16.9 100% 75.64 0.0 0.05
05 11:15 S 9 6.44 Light Rain Fog/Mist NULL 16.9 16.9 100% 75.64 0.0 0.05
05 10:55 S 11 8.05 Light Rain Fog/Mist NULL 17.1 17 99% 75.64 0.0 0.03
05 10:35 S 11 14.48 NULL NULL 17.3 16.8 97% 75.64 0.0
05 10:15 S 9 14.48 NULL NULL 17.3 16.8 97% 75.64 0.0
05 09:55 S 11 16.09 NULL NULL 17.4 17.1 98% 75.67 0.0 0.51
05 09:35 S 11 12.87 NULL NULL 17 16.8 99% 75.67 0.0
05 09:15 S 13 14.48 NULL NULL 16.7 16.7 100% 75.64 0.0
05 08:55 S 17 14.48 NULL NULL 16.3 16.3 100% 75.62 0.0 0.1
05 08:35 S 17 14.48 Light Rain NULL 16 16 100% 75.64 0.0 0.1
05 08:15 S 11 8.05 Light Rain Fog/Mist NULL 15.9 15.9 100% 75.64 0.0 0.1
05 07:55 SW 13 G 33 1.61 Light Rain Fog/Mist NULL 15.7 15.7 100% 75.64 0.0 0.41
05 07:35 SW 9 6.44 Light Rain Fog/Mist Thunderstorm in Vicinity NULL 16.6 15.4 93% 75.64 0.0
05 07:15 SW 15 11.27 Light Rain Thunderstorm in Vicinity NULL 17.9 13.7 77% 75.62 0.0
05 06:55 S 13 16.09 Thunderstorm in Vicinity NULL 18.6 12.2 19.5 17.6 67% 75.57 0.0
05 06:35 S 15 14.48 NULL NULL 18.5 11.9 66% 75.54 0.0
05 06:15 Vrbl 11 16.09 NULL NULL 18.3 11.8 66% 75.54 0.0
05 05:55 S 9 16.09 NULL NULL 17.9 11.6 67% 75.51 0.0
05 05:35 S 11 16.09 NULL NULL 17.9 11.6 67% 75.51 0.0
05 05:15 S 9 16.09 NULL NULL 17.7 11.4 67% 75.51 0.0
05 04:55 S 9 16.09 NULL NULL 18.2 11 63% 75.54 0.0
05 04:35 S 13 16.09 NULL NULL 18.3 10.9 62% 75.54 0.0
05 04:15 S 11 16.09 NULL NULL 18.3 10.6 61% 75.57 0.0
05 03:55 S 7 16.09 NULL NULL 18.6 10.4 59% 75.57 0.0
05 03:35 S 11 16.09 NULL NULL 18.9 10.3 58% 75.57 0.0
05 03:15 S 15 16.09 NULL NULL 18.9 10.2 57% 75.54 0.0
05 02:55 S 19 G 28 16.09 NULL NULL 19 10 56% 75.51 0.0
05 02:35 S 19 G 31 16.09 NULL NULL 19.1 10 56% 75.51 0.0
05 02:15 S 17 G 30 16.09 NULL NULL 19.1 10.1 56% 75.51 0.0
05 01:55 S 15 16.09 NULL NULL 19.2 10.1 56% 75.54 0.0
05 01:35 S 15 16.09 NULL NULL 19.1 10.2 56% 75.57 0.0
05 01:15 S 13 16.09 NULL NULL 19.3 10 55% 75.57 0.0
05 00:55 S 15 G 28 16.09 NULL NULL 19.8 9.9 25 19.8 53% 75.59 0.0
05 00:15 S 15 G 28 16.09 NULL NULL 20.3 9.9 51% 75.59 0.0
04 23:55 S 17 G 28 16.09 NULL NULL 20.4 9.9 51% 75.59 0.0
04 23:35 S 17 G 26 16.09 NULL NULL 20.6 9.9 50% 75.59 0.0
04 23:15 S 17 G 28 16.09 NULL NULL 20.8 9.8 50% 75.62 0.0
04 22:55 S 15 16.09 NULL NULL 20.7 9.9 50% 75.62 0.0
04 22:35 S 9 16.09 NULL NULL 20.7 10 50% 75.62 0.0
04 22:15 S 15 16.09 NULL NULL 21.3 9.9 48% 75.62 0.0
04 21:55 S 15 16.09 NULL NULL 21.8 10 47% 75.59 0.0
04 21:35 S 15 16.09 NULL NULL 22.1 10 46% 75.57 0.0
04 21:15 S 15 16.09 NULL NULL 22.4 9.9 45% 75.57 0.0
04 20:55 SW 13 G 28 16.09 NULL NULL 22.7 9.8 44% 75.54 0.0
04 20:35 SW 17 16.09 NULL NULL 22.9 9.7 43% 75.54 0.0
04 20:15 S 17 G 30 16.09 NULL NULL 23.3 9.7 42% 75.51 0.0
04 19:55 S 15 14.48 NULL NULL 23.9 9.4 40% 25 75.51 0.0
04 19:35 SW 20 G 30 16.09 NULL NULL 24.3 9.4 39% 25 75.51 0.0
04 19:15 SW 20 G 31 16.09 NULL NULL 24.7 9.4 38% 26 75.51 0.0
04 18:55 SW 19 G 31 16.09 NULL NULL 25.2 9.1 27.7 25.2 36% 26 75.51 0.0
04 18:35 S 22 G 31 16.09 NULL NULL 25.6 9.6 36% 26 75.51 0.0
04 18:15 S 20 G 33 16.09 NULL NULL 25.8 9.4 36% 26 75.54 0.0
04 17:55 SW 26 G 41 16.09 NULL NULL 26.1 9.3 35% 26 75.54 0.0
04 17:35 SW 24 G 41 16.09 NULL NULL 26.4 9.4 34% 26 75.54 0.0
04 17:15 SW 28 G 37 16.09 NULL NULL 26.6 9.1 33% 26 75.57 0.0
04 16:55 SW 30 G 44 16.09 NULL NULL 26.9 9 32% 26 75.57 0.0
04 16:35 S 28 G 52 16.09 NULL NULL 27 8.4 31% 26 75.57 0.0
04 16:15 SW 39 G 52 16.09 Breezy NULL 27 8.5 31% 26 75.57 0.0
04 15:55 SW 37 G 56 16.09 Breezy NULL 27.1 7.9 30% 26 75.57 0.0
04 15:35 SW 31 G 52 16.09 NULL NULL 27.3 7.7 29% 27 75.57 0.0
04 15:15 SW 35 G 54 16.09 Breezy NULL 27.4 8.4 30% 27 75.57 0.0
04 14:55 SW 33 G 54 16.09 Breezy NULL 27.1 8.3 31% 27 75.59 0.0
04 14:35 SW 37 G 52 16.09 Breezy NULL 27.1 7.5 29% 26 75.62 0.0
04 14:15 SW 33 G 50 16.09 Breezy NULL 27.3 7.7 29% 27 75.62 0.0
04 13:55 SW 35 G 48 16.09 Breezy NULL 27.6 8.3 30% 27 75.64 0.0
04 13:35 SW 28 G 48 16.09 NULL NULL 27.3 8.3 30% 27 75.67 0.0
04 13:15 SW 31 G 46 16.09 NULL NULL 27 8.3 31% 26 75.67 0.0
04 12:55 SW 31 G 48 16.09 NULL NULL 26.8 8 27.4 16.4 30% 26 75.69 0.0
04 12:35 SW 30 G 44 16.09 NULL NULL 26.8 7.5 29% 26 75.72 0.0
04 12:15 SW 28 G 48 16.09 NULL NULL 27 8.9 32% 26 75.72 0.0
04 11:55 SW 35 G 46 16.09 Breezy NULL 26.4 7.4 30% 26 75.74 0.0
04 11:35 SW 39 G 54 16.09 Breezy NULL 26.4 7.4 30% 26 75.74 0.0
04 11:15 SW 39 G 56 16.09 Breezy NULL 26.1 6.9 29% 26 75.77 0.0
04 10:55 SW 35 G 48 16.09 Breezy NULL 25.9 8.9 34% 26 75.77 0.0
04 10:35 SW 30 G 43 16.09 NULL NULL 25.2 9.9 38% 26 75.79 0.0
04 10:15 SW 20 16.09 NULL NULL 24.1 11.3 45% 25 75.82 0.0
04 09:55 SW 26 16.09 NULL NULL 22.9 11.3 48% 75.82 0.0
04 09:35 SW 26 14.48 NULL NULL 22.3 11.4 50% 75.82 0.0
04 09:15 SW 24 16.09 NULL NULL 21.7 11.3 52% 75.84 0.0
04 08:55 SW 19 G 33 16.09 NULL NULL 20.4 11.7 58% 75.84 0.0
04 08:35 SW 19 16.09 NULL NULL 19.9 11.7 59% 75.87 0.0
04 08:15 SW 13 G 26 16.09 NULL NULL 18.5 11.6 64% 75.84 0.0
04 07:55 S 11 14.48 NULL NULL 17.5 11.3 67% 75.84 0.0
04 07:35 SW 15 14.48 NULL NULL 17.3 11 67% 75.84 0.0
04 07:15 Vrbl 9 14.48 NULL NULL 16.9 10.8 67% 75.84 0.0
04 06:55 S 11 12.87 NULL NULL 16.1 10.4 17.5 15.5 69% 75.82 0.0
04 06:35 S 11 12.87 NULL NULL 15.7 10.2 70% 75.82 0.0
04 06:15 SW 9 14.48 NULL NULL 15.5 10 70% 75.82 0.0
04 05:55 SW 11 16.09 NULL NULL 15.7 9.8 68% 75.79 0.0
04 05:35 SW 13 16.09 NULL NULL 15.9 9.6 66% 75.79 0.0
04 05:15 SW 13 16.09 NULL NULL 16.2 9.4 64% 75.82 0.0
04 04:55 SW 13 16.09 NULL NULL 16.4 9.4 63% 75.82 0.0
04 04:35 SW 17 16.09 NULL NULL 16.5 9.2 62% 75.82 0.0
04 04:15 SW 13 16.09 NULL NULL 16.8 9.1 61% 75.82 0.0
04 03:55 SW 15 16.09 NULL NULL 17 9 60% 75.79 0.0
04 03:35 SW 15 G 28 16.09 NULL NULL 17.1 9 59% 75.79 0.0
04 03:15 SW 20 16.09 NULL NULL 17.1 9.1 60% 75.79 0.0
04 02:55 SW 17 G 30 14.48 NULL NULL 17.2 9.1 59% 75.79 0.0
04 02:35 SW 19 G 28 16.09 NULL NULL 17.1 9.1 60% 75.79 0.0
04 02:15 SW 20 G 30 14.48 NULL NULL 17 9.1 60% 75.82 0.0
04 01:55 SW 19 G 30 16.09 NULL NULL 17.2 8.8 58% 75.84 0.0
04 01:35 SW 17 G 31 14.48 NULL NULL 17.1 8.8 58% 75.84 0.0
04 01:15 SW 19 G 30 16.09 NULL NULL 17.2 8.6 57% 75.87 0.0
04 00:55 SW 19 G 31 16.09 NULL NULL 17.5 8.4 21.5 17.5 55% 75.9 0.0
04 00:35 SW 22 G 33 16.09 NULL NULL 17.6 8.3 55% 75.92 0.0
04 00:15 SW 17 16.09 NULL NULL 17.6 8.2 54% 75.92 0.0
03 23:55 S 15 16.09 NULL NULL 17.8 8.1 53% 75.95 0.0
03 23:35 S 15 16.09 NULL NULL 17.8 8.1 53% 75.95 0.0
03 23:15 SW 15 16.09 NULL NULL 18 8.2 53% 75.95 0.0
Date Time (cdt) Wind (kph) Vis. (km) Weather Sky Cond. Air Dwpt Max. Min. Relative Humidity Wind Chill (°C) Heat Index (°C) altimeter (cm) sea level (mb) 1 hr 3 hr 6 hr
6 hour
Temperature (ºC) Pressure Precipitation (cm)